createdAt,value
2023-05-09T00:01:13.059Z,25.60
2023-05-09T00:03:39.457Z,25.30
2023-05-09T00:06:06.784Z,25.75
2023-05-09T00:08:33.309Z,26.02
2023-05-09T00:11:00.446Z,25.27
2023-05-09T00:13:26.818Z,26.35
2023-05-09T00:15:58.637Z,25.90
2023-05-09T00:18:25.046Z,27.23
2023-05-09T00:20:51.422Z,27.50
2023-05-09T00:23:17.947Z,25.70
2023-05-09T00:25:44.274Z,25.27
2023-05-09T00:28:10.824Z,27.13
2023-05-09T00:30:37.187Z,26.60
2023-05-09T00:33:03.636Z,26.08
2023-05-09T00:35:32.407Z,26.23
2023-05-09T00:37:59.673Z,27.52
2023-05-09T00:40:26.351Z,27.45
2023-05-09T00:42:52.797Z,25.38
2023-05-09T00:45:19.161Z,26.50
2023-05-09T00:47:45.630Z,25.90
2023-05-09T00:50:12.072Z,26.30
2023-05-09T00:52:38.544Z,27.58
2023-05-09T00:55:06.641Z,26.85
2023-05-09T00:57:33.336Z,26.50
2023-05-09T01:00:00.676Z,27.88
2023-05-09T01:02:27.476Z,26.95
2023-05-09T01:04:53.981Z,27.17
2023-05-09T01:07:46.327Z,28.95
2023-05-09T01:10:15.637Z,27.95
2023-05-09T01:12:54.209Z,25.80
2023-05-09T01:15:26.844Z,26.83
2023-05-09T01:18:12.838Z,27.27
2023-05-09T01:20:46.426Z,27.08
2023-05-09T01:23:18.793Z,27.92
2023-05-09T01:25:54.797Z,27.58
2023-05-09T01:28:39.943Z,26.75
2023-05-09T01:31:08.005Z,26.63
2023-05-09T01:33:36.482Z,28.15
2023-05-09T01:36:05.062Z,25.30
2023-05-09T01:38:32.524Z,25.92
2023-05-09T01:40:59.905Z,27.70
2023-05-09T01:43:27.932Z,27.45
2023-05-09T01:45:55.186Z,28.33
2023-05-09T01:48:22.048Z,27.70
2023-05-09T01:50:49.022Z,27.45
2023-05-09T01:53:16.280Z,28.90
2023-05-09T01:55:44.122Z,27.67
2023-05-09T01:58:10.837Z,26.42
2023-05-09T02:00:37.403Z,29.00
2023-05-09T02:03:04.024Z,28.40
2023-05-09T02:05:31.000Z,27.77
2023-05-09T02:07:59.182Z,29.48
2023-05-09T02:10:27.070Z,28.65
2023-05-09T02:12:53.886Z,27.48
2023-05-09T02:15:20.926Z,27.67
2023-05-09T02:17:47.317Z,28.92
2023-05-09T02:20:14.249Z,26.88
2023-05-09T02:22:42.296Z,27.88
2023-05-09T02:25:10.551Z,26.80
2023-05-09T02:27:38.291Z,26.80
2023-05-09T02:30:07.692Z,27.45
2023-05-09T02:32:34.684Z,27.23
2023-05-09T02:35:01.849Z,28.10
2023-05-09T02:37:30.563Z,28.92
2023-05-09T02:39:57.032Z,26.63
2023-05-09T02:42:25.368Z,28.50
2023-05-09T02:44:52.528Z,25.80
2023-05-09T02:47:19.032Z,28.27
2023-05-09T02:49:45.326Z,28.20
2023-05-09T02:52:11.855Z,27.10
2023-05-09T02:54:38.558Z,27.05
2023-05-09T02:57:05.040Z,27.60
2023-05-09T02:59:32.042Z,28.23
2023-05-09T03:01:59.225Z,28.20
2023-05-09T03:04:29.206Z,27.45
2023-05-09T03:06:55.590Z,26.52
2023-05-09T03:09:21.965Z,26.50
2023-05-09T03:11:48.298Z,26.33
2023-05-09T03:14:15.264Z,27.25
2023-05-09T03:16:41.583Z,27.75
2023-05-09T03:19:07.930Z,27.80
2023-05-09T03:21:34.382Z,25.73
2023-05-09T03:24:00.858Z,28.30
2023-05-09T03:26:27.217Z,25.73
2023-05-09T03:28:53.796Z,24.42
2023-05-09T03:31:20.164Z,25.67
2023-05-09T03:33:46.528Z,26.92
2023-05-09T03:36:12.847Z,27.10
2023-05-09T03:38:39.201Z,27.20
2023-05-09T03:41:05.573Z,27.90
2023-05-09T03:43:31.979Z,27.77
2023-05-09T03:45:59.191Z,27.17
2023-05-09T03:48:25.599Z,27.65
2023-05-09T03:50:52.003Z,25.73
2023-05-09T03:53:18.350Z,26.88
2023-05-09T03:55:44.637Z,26.92
2023-05-09T03:58:11.791Z,26.58
2023-05-09T04:00:38.199Z,24.65
2023-05-09T04:03:04.707Z,26.60
2023-05-09T04:05:33.450Z,24.55
2023-05-09T04:08:00.534Z,24.02
2023-05-09T04:10:26.935Z,24.45
2023-05-09T04:12:53.202Z,22.42
2023-05-09T04:15:19.438Z,23.40
2023-05-09T04:17:45.937Z,24.33
2023-05-09T04:20:12.716Z,24.10
2023-05-09T04:22:39.054Z,24.83
2023-05-09T04:25:06.741Z,24.55
2023-05-09T04:27:32.985Z,25.00
2023-05-09T04:30:00.243Z,22.65
2023-05-09T04:32:26.964Z,23.38
2023-05-09T04:34:53.320Z,23.98
2023-05-09T04:37:20.207Z,22.33
2023-05-09T04:39:46.673Z,22.90
2023-05-09T04:42:13.257Z,21.95
2023-05-09T04:44:39.657Z,21.80
2023-05-09T04:47:05.974Z,21.85
2023-05-09T04:49:32.376Z,20.95
2023-05-09T04:51:59.325Z,22.42
2023-05-09T04:54:25.846Z,20.08
2023-05-09T04:56:53.139Z,20.42
2023-05-09T04:59:19.744Z,21.88
2023-05-09T05:01:46.282Z,22.60
2023-05-09T05:04:12.696Z,22.20
2023-05-09T05:06:39.172Z,21.83
2023-05-09T05:09:05.834Z,19.70
2023-05-09T05:11:32.321Z,22.02
2023-05-09T05:13:59.306Z,19.83
2023-05-09T05:16:25.704Z,20.17
2023-05-09T05:18:52.158Z,19.40
2023-05-09T05:21:18.433Z,19.67
2023-05-09T05:23:44.764Z,19.38
2023-05-09T05:26:11.096Z,18.58
2023-05-09T05:28:37.328Z,17.90
2023-05-09T05:31:03.598Z,18.10
2023-05-09T05:33:30.602Z,17.38
2023-05-09T05:35:57.040Z,18.17
2023-05-09T05:38:23.454Z,17.33
2023-05-09T05:40:49.858Z,18.00
2023-05-09T05:43:16.242Z,17.08
2023-05-09T05:45:42.547Z,16.60
2023-05-09T05:48:08.879Z,16.65
2023-05-09T05:50:36.626Z,16.92
2023-05-09T05:53:03.065Z,17.42
2023-05-09T05:55:30.421Z,15.50
2023-05-09T05:57:56.687Z,16.08
2023-05-09T06:00:23.170Z,15.27
2023-05-09T06:02:49.588Z,15.88
2023-05-09T06:05:16.394Z,16.23
2023-05-09T06:07:44.280Z,15.65
2023-05-09T06:10:11.067Z,15.88
2023-05-09T06:12:37.375Z,15.52
2023-05-09T06:15:05.714Z,15.52
2023-05-09T06:17:32.138Z,15.30
2023-05-09T06:20:01.637Z,14.73
2023-05-09T06:22:27.936Z,15.23
2023-05-09T06:24:54.263Z,13.63
2023-05-09T06:27:20.690Z,14.05
2023-05-09T06:29:47.022Z,14.23
2023-05-09T06:32:13.315Z,14.38
2023-05-09T06:34:39.632Z,14.02
2023-05-09T06:37:05.914Z,14.30
2023-05-09T06:39:33.544Z,14.68
2023-05-09T06:42:00.018Z,15.63
2023-05-09T06:44:26.763Z,14.57
2023-05-09T06:46:53.250Z,13.70
2023-05-09T06:49:19.562Z,15.20
2023-05-09T06:51:45.895Z,14.15
2023-05-09T06:54:12.173Z,14.75
2023-05-09T06:56:38.574Z,15.48
2023-05-09T06:59:05.073Z,14.82
2023-05-09T07:01:31.617Z,14.68
2023-05-09T07:03:59.192Z,15.20
2023-05-09T07:06:25.513Z,15.95
2023-05-09T07:08:51.843Z,15.57
2023-05-09T07:11:18.237Z,14.48
2023-05-09T07:13:44.749Z,15.57
2023-05-09T07:16:11.335Z,15.90
2023-05-09T07:18:37.781Z,16.08
2023-05-09T07:21:04.144Z,15.38
2023-05-09T07:23:30.551Z,15.25
2023-05-09T07:25:58.979Z,15.93
2023-05-09T07:28:25.989Z,16.08
2023-05-09T07:30:52.405Z,15.50
2023-05-09T07:33:18.714Z,16.75
2023-05-09T07:35:45.024Z,17.05
2023-05-09T07:38:11.355Z,15.38
2023-05-09T07:40:38.789Z,15.48
2023-05-09T07:43:05.188Z,16.10
2023-05-09T07:45:31.679Z,15.95
2023-05-09T07:47:58.017Z,15.48
2023-05-09T07:50:24.439Z,15.60
2023-05-09T07:52:51.861Z,14.70
2023-05-09T07:55:18.414Z,15.93
2023-05-09T07:57:44.904Z,14.60
2023-05-09T08:00:11.632Z,17.02
2023-05-09T08:02:38.080Z,16.00
2023-05-09T08:05:04.785Z,15.43
2023-05-09T08:07:31.427Z,15.40
2023-05-09T08:09:57.858Z,14.88
2023-05-09T08:12:24.288Z,16.33
2023-05-09T08:14:50.818Z,14.80
2023-05-09T08:17:17.491Z,15.57
2023-05-09T08:19:43.787Z,14.63
2023-05-09T08:22:16.158Z,14.20
2023-05-09T08:24:42.476Z,14.68
2023-05-09T08:27:08.845Z,14.98
2023-05-09T08:29:35.166Z,13.88
2023-05-09T08:32:01.492Z,13.75
2023-05-09T08:34:27.817Z,13.35
2023-05-09T08:36:54.120Z,13.57
2023-05-09T08:39:20.529Z,12.80
2023-05-09T08:41:46.893Z,12.32
2023-05-09T08:44:13.567Z,11.63
2023-05-09T08:46:42.488Z,11.77
2023-05-09T08:49:09.092Z,11.32
2023-05-09T08:51:35.938Z,10.82
2023-05-09T08:54:02.807Z,10.75
2023-05-09T08:56:30.320Z,10.18
2023-05-09T08:58:56.702Z,9.32
2023-05-09T09:01:23.509Z,9.15
2023-05-09T09:03:50.351Z,8.68
2023-05-09T09:06:17.392Z,8.57
2023-05-09T09:08:44.146Z,8.90
2023-05-09T09:11:11.794Z,9.02
2023-05-09T09:13:40.607Z,9.18
2023-05-09T09:16:09.467Z,8.32
2023-05-09T09:18:36.340Z,8.50
2023-05-09T09:21:06.211Z,8.88
2023-05-09T09:23:32.773Z,8.52
2023-05-09T09:26:03.068Z,8.50
2023-05-09T09:28:29.937Z,8.55
2023-05-09T09:30:56.251Z,8.93
2023-05-09T09:33:23.687Z,8.75
2023-05-09T09:35:51.446Z,8.43
2023-05-09T09:38:19.279Z,9.02
2023-05-09T09:40:51.438Z,8.52
2023-05-09T09:43:17.896Z,8.50
2023-05-09T09:45:44.682Z,8.70
2023-05-09T09:48:11.236Z,8.15
2023-05-09T09:50:37.610Z,8.27
2023-05-09T09:53:03.893Z,7.95
2023-05-09T09:55:32.028Z,9.02
2023-05-09T09:57:58.972Z,9.18
2023-05-09T10:00:27.528Z,9.27
2023-05-09T10:02:55.393Z,7.60
2023-05-09T10:05:22.835Z,7.45
2023-05-09T10:07:57.882Z,6.97
2023-05-09T10:10:26.358Z,7.78
2023-05-09T10:12:54.122Z,6.93
2023-05-09T10:15:21.772Z,7.43
2023-05-09T10:17:50.729Z,7.88
2023-05-09T10:20:17.606Z,7.88
2023-05-09T10:22:44.053Z,7.88
2023-05-09T10:25:20.950Z,7.90
2023-05-09T10:27:48.226Z,7.13
2023-05-09T10:30:28.268Z,8.15
2023-05-09T10:32:54.649Z,7.70
2023-05-09T10:35:24.560Z,7.70
2023-05-09T10:37:52.646Z,7.55
2023-05-09T10:40:19.877Z,7.80
2023-05-09T10:42:47.670Z,7.47
2023-05-09T10:45:14.305Z,7.90
2023-05-09T10:47:41.584Z,7.68
2023-05-09T10:50:08.504Z,7.82
2023-05-09T10:52:34.931Z,7.38
2023-05-09T10:55:05.178Z,8.48
2023-05-09T10:57:32.167Z,7.10
2023-05-09T10:59:59.135Z,8.00
2023-05-09T11:02:29.597Z,7.47
2023-05-09T11:05:14.981Z,7.75
2023-05-09T11:07:41.543Z,8.00
2023-05-09T11:10:14.895Z,6.85
2023-05-09T11:12:57.550Z,6.80
2023-05-09T11:15:24.565Z,6.20
2023-05-09T11:18:04.329Z,7.03
2023-05-09T11:20:33.277Z,6.88
2023-05-09T11:23:01.153Z,7.47
2023-05-09T11:25:29.142Z,7.28
2023-05-09T11:28:01.401Z,8.27
2023-05-09T11:30:41.048Z,7.45
2023-05-09T11:33:21.000Z,7.07
2023-05-09T11:35:48.395Z,7.53
2023-05-09T11:38:20.412Z,7.15
2023-05-09T11:40:47.059Z,6.60
2023-05-09T11:43:13.537Z,6.15
2023-05-09T11:45:40.617Z,7.13
2023-05-09T11:48:10.604Z,6.85
2023-05-09T11:50:36.980Z,6.55
2023-05-09T11:53:03.330Z,7.25
2023-05-09T11:55:30.608Z,7.07
2023-05-09T11:57:57.133Z,7.00
2023-05-09T12:00:24.392Z,8.10
2023-05-09T12:02:51.723Z,7.63
2023-05-09T12:05:19.362Z,6.80
2023-05-09T12:07:46.408Z,6.13
2023-05-09T12:10:22.949Z,6.20
2023-05-09T12:12:50.166Z,6.95
2023-05-09T12:15:17.669Z,6.40
2023-05-09T12:17:45.106Z,5.80
2023-05-09T12:20:11.678Z,6.50
2023-05-09T12:22:38.048Z,6.53
2023-05-09T12:25:07.266Z,6.95
2023-05-09T12:27:35.292Z,6.22
2023-05-09T12:30:01.991Z,6.47
2023-05-09T12:32:32.608Z,5.50
2023-05-09T12:35:00.406Z,5.35
2023-05-09T12:37:26.917Z,5.35
2023-05-09T12:40:13.150Z,4.93
2023-05-09T12:42:42.909Z,4.65
2023-05-09T12:45:10.068Z,5.07
2023-05-09T12:47:38.777Z,4.80
2023-05-09T12:50:06.341Z,5.22
2023-05-09T12:52:54.509Z,4.68
2023-05-09T12:55:25.296Z,5.43
2023-05-09T12:57:59.327Z,5.55
2023-05-09T13:00:26.119Z,5.38
2023-05-09T13:02:53.000Z,6.15
2023-05-09T13:05:20.450Z,6.20
2023-05-09T13:07:48.104Z,5.95
2023-05-09T13:10:15.310Z,6.90
2023-05-09T13:12:45.128Z,6.85
2023-05-09T13:15:11.898Z,7.28
2023-05-09T13:17:38.368Z,7.40
2023-05-09T13:20:05.582Z,6.88
2023-05-09T13:22:32.150Z,6.63
2023-05-09T13:24:58.690Z,7.13
2023-05-09T13:27:25.195Z,6.93
2023-05-09T13:29:51.582Z,6.60
2023-05-09T13:32:18.014Z,5.68
2023-05-09T13:34:44.343Z,5.22
2023-05-09T13:37:10.909Z,5.30
2023-05-09T13:39:37.417Z,5.07
2023-05-09T13:42:04.030Z,5.07
2023-05-09T13:44:30.380Z,4.78
2023-05-09T13:46:59.119Z,4.63
2023-05-09T13:49:25.847Z,4.35
2023-05-09T13:51:52.157Z,5.00
2023-05-09T13:54:19.783Z,4.65
2023-05-09T13:56:46.138Z,4.75
2023-05-09T13:59:12.557Z,4.68
2023-05-09T14:01:38.891Z,5.18
2023-05-09T14:04:05.367Z,4.65
2023-05-09T14:06:31.739Z,4.70
2023-05-09T14:08:58.267Z,4.53
2023-05-09T14:11:25.581Z,4.75
2023-05-09T14:13:55.234Z,3.95
2023-05-09T14:16:21.928Z,4.07
2023-05-09T14:18:48.437Z,4.25
2023-05-09T14:21:14.932Z,3.80
2023-05-09T14:23:41.745Z,3.90
2023-05-09T16:24:31.941Z,2.58
2023-05-09T16:26:58.644Z,2.38
2023-05-09T16:29:24.959Z,2.47
2023-05-09T16:31:51.269Z,2.33
2023-05-09T16:34:17.544Z,2.83
2023-05-09T16:36:46.339Z,2.72
2023-05-09T16:39:12.709Z,3.20
2023-05-09T16:41:38.933Z,2.92
2023-05-09T16:44:05.233Z,3.03
2023-05-09T16:46:31.564Z,3.20
2023-05-09T16:48:57.900Z,3.25
2023-05-09T16:51:24.246Z,3.10
2023-05-09T16:53:50.585Z,3.47
2023-05-09T16:56:16.970Z,4.00
2023-05-09T16:58:44.853Z,4.07
2023-05-09T17:01:11.515Z,3.90
2023-05-09T17:03:37.930Z,4.40
2023-05-09T17:06:04.626Z,3.90
2023-05-09T17:08:30.976Z,3.65
2023-05-09T17:10:57.750Z,3.95
2023-05-09T17:13:24.165Z,4.22
2023-05-09T17:15:52.554Z,3.97
2023-05-09T17:18:29.260Z,4.50
2023-05-09T17:21:02.837Z,4.20
2023-05-09T17:23:29.165Z,5.10
2023-05-09T17:25:55.511Z,4.88
2023-05-09T17:28:21.769Z,5.00
2023-05-09T17:30:48.108Z,4.60
2023-05-09T17:33:15.049Z,5.40
2023-05-09T17:35:41.348Z,4.75
2023-05-09T17:38:07.649Z,5.47
2023-05-09T17:40:34.031Z,5.38
2023-05-09T17:43:00.292Z,5.90
2023-05-09T17:45:26.836Z,5.57
2023-05-09T17:47:53.176Z,5.63
2023-05-09T17:50:20.784Z,5.63
2023-05-09T17:52:49.361Z,5.53
2023-05-09T17:55:15.791Z,6.18
2023-05-09T17:57:43.266Z,6.57
2023-05-09T18:00:09.984Z,6.13
2023-05-09T18:02:36.411Z,6.72
2023-05-09T18:05:02.853Z,6.45
2023-05-09T18:07:29.174Z,6.70
2023-05-09T18:09:55.667Z,6.38
2023-05-09T18:12:22.456Z,6.57
2023-05-09T18:14:49.238Z,7.03
2023-05-09T18:17:15.637Z,7.00
2023-05-09T18:19:42.197Z,6.60
2023-05-09T18:22:08.606Z,6.50
2023-05-09T18:24:35.024Z,6.00
2023-05-09T18:27:03.108Z,6.65
2023-05-09T18:29:29.868Z,7.45
2023-05-09T18:31:56.365Z,6.57
2023-05-09T18:34:22.930Z,6.60
2023-05-09T18:36:50.224Z,5.68
2023-05-09T18:39:16.477Z,6.15
2023-05-09T18:41:42.862Z,5.97
2023-05-09T18:44:09.129Z,5.57
2023-05-09T18:46:35.518Z,5.47
2023-05-09T18:49:03.877Z,5.20
2023-05-09T18:51:31.671Z,5.63
2023-05-09T18:53:57.971Z,5.55
2023-05-09T18:56:25.576Z,5.63
2023-05-09T18:58:51.885Z,5.97
2023-05-09T19:01:19.017Z,6.28
2023-05-09T19:03:46.159Z,5.85
2023-05-09T19:06:13.466Z,5.53
2023-05-09T19:08:40.538Z,6.32
2023-05-09T19:11:07.273Z,6.65
2023-05-09T19:13:37.089Z,6.45
2023-05-09T19:16:07.029Z,6.60
2023-05-09T19:18:33.560Z,7.15
2023-05-09T19:21:00.241Z,6.78
2023-05-09T19:23:26.835Z,6.60
2023-05-09T19:25:56.538Z,6.18
2023-05-09T19:28:23.114Z,6.35
2023-05-09T19:30:50.154Z,6.07
2023-05-09T19:33:16.623Z,5.97
2023-05-09T19:35:43.218Z,6.45
2023-05-09T19:38:11.739Z,5.93
2023-05-09T19:40:38.619Z,5.38
2023-05-09T19:43:05.123Z,5.78
2023-05-09T19:45:31.404Z,5.57
2023-05-09T19:47:57.805Z,5.75
2023-05-09T19:50:24.127Z,5.72
2023-05-09T19:52:50.500Z,5.53
2023-05-09T19:55:16.772Z,4.75
2023-05-09T19:57:43.153Z,4.68
2023-05-09T20:00:09.775Z,5.15
2023-05-09T20:02:36.232Z,5.05
2023-05-09T20:05:02.641Z,4.97
2023-05-09T20:07:29.593Z,4.72
2023-05-09T20:09:55.913Z,5.00
2023-05-09T20:12:22.192Z,5.20
2023-05-09T20:14:48.474Z,4.95
2023-05-09T20:17:14.759Z,5.10
2023-05-09T20:19:41.068Z,4.88
2023-05-09T20:22:08.716Z,4.95
2023-05-09T20:24:34.980Z,4.82
2023-05-09T20:27:02.886Z,5.18
2023-05-09T20:29:29.304Z,4.72
2023-05-09T20:31:55.724Z,4.78
2023-05-09T20:34:24.445Z,5.60
2023-05-09T20:36:53.380Z,5.28
2023-05-09T20:39:20.470Z,5.38
2023-05-09T20:41:47.602Z,6.45
2023-05-09T20:44:14.457Z,5.80
2023-05-09T20:46:40.800Z,5.20
2023-05-09T20:49:07.678Z,5.00
2023-05-09T20:51:34.378Z,6.20
2023-05-09T20:54:00.923Z,6.43
2023-05-09T20:56:28.655Z,5.82
2023-05-09T20:58:55.388Z,5.90
2023-05-09T21:01:21.904Z,6.50
2023-05-09T21:03:48.246Z,5.38
2023-05-09T21:06:14.567Z,5.97
2023-05-09T21:08:41.907Z,6.20
2023-05-09T21:11:08.170Z,5.68
2023-05-09T21:13:34.587Z,6.78
2023-05-09T21:16:00.898Z,7.20
2023-05-09T21:18:27.685Z,6.82
2023-05-09T21:20:53.962Z,7.53
2023-05-09T21:23:20.863Z,7.63
2023-05-09T21:25:47.136Z,8.52
2023-05-09T21:28:15.426Z,7.85
2023-05-09T21:33:08.168Z,8.30
2023-05-09T21:35:34.568Z,8.73
2023-05-09T21:38:00.831Z,8.65
2023-05-09T21:40:27.211Z,9.77
2023-05-09T21:42:53.577Z,9.27
2023-05-09T21:45:19.896Z,7.93
2023-05-09T21:47:46.241Z,8.77
2023-05-09T21:50:12.718Z,9.13
2023-05-09T21:52:39.023Z,9.35
2023-05-09T21:55:05.571Z,9.05
2023-05-09T21:57:31.836Z,10.05
2023-05-09T22:00:01.287Z,10.63
2023-05-09T22:02:30.710Z,9.07
2023-05-09T22:04:57.078Z,9.55
2023-05-09T22:07:23.437Z,10.63
2023-05-09T22:09:49.673Z,9.25
2023-05-09T22:12:15.919Z,10.52
2023-05-09T22:14:53.002Z,10.52
2023-05-09T22:17:22.467Z,10.85
2023-05-09T22:19:48.776Z,11.48
2023-05-09T22:22:15.059Z,12.52
2023-05-09T22:24:44.132Z,11.48
2023-05-09T22:27:10.904Z,12.10
2023-05-09T22:29:37.284Z,12.25
2023-05-09T22:32:03.898Z,12.45
2023-05-09T22:34:30.590Z,11.48
2023-05-09T22:36:56.933Z,12.13
2023-05-09T22:39:23.229Z,12.88
2023-05-09T22:41:49.554Z,13.88
2023-05-09T22:44:15.821Z,14.45
2023-05-09T22:46:42.099Z,14.00
2023-05-09T22:49:08.898Z,14.80
2023-05-09T22:51:35.203Z,15.02
2023-05-09T22:54:01.477Z,14.27
2023-05-09T22:56:27.731Z,14.45
2023-05-09T22:58:54.118Z,15.60
2023-05-09T23:01:20.398Z,14.90
2023-05-09T23:03:46.740Z,14.75
2023-05-09T23:06:13.072Z,15.65
2023-05-09T23:08:39.392Z,15.40
2023-05-09T23:11:05.794Z,16.52
2023-05-09T23:13:32.477Z,15.95
2023-05-09T23:15:58.865Z,16.58
2023-05-09T23:18:25.687Z,16.20
2023-05-09T23:20:52.100Z,16.67
2023-05-09T23:23:18.484Z,17.33
2023-05-09T23:25:45.038Z,17.52
2023-05-09T23:28:11.378Z,17.40
2023-05-09T23:30:37.747Z,18.25
2023-05-09T23:33:04.090Z,18.73
2023-05-09T23:35:30.376Z,17.00
2023-05-09T23:37:56.832Z,17.27
2023-05-09T23:40:23.183Z,17.63
2023-05-09T23:42:49.500Z,17.15
2023-05-09T23:45:16.212Z,17.77
2023-05-09T23:47:42.600Z,17.08
2023-05-09T23:50:09.015Z,17.70
2023-05-09T23:52:35.880Z,17.45
2023-05-09T23:55:02.164Z,18.33
2023-05-09T23:57:28.745Z,18.58
2023-05-09T23:59:55.059Z,17.23
